sensor_id;sensor_type;location;lat;lon;timestamp;pressure;altitude;pressure_sealevel;temperature;humidity
49122;BME280;35529;44.342;25.944;2023-07-16T00:02:12;100788.13;;;24.34;100.00
49122;BME280;35529;44.342;25.944;2023-07-16T00:04:38;100793.31;;;24.30;100.00
49122;BME280;35529;44.342;25.944;2023-07-16T00:07:04;100793.06;;;24.26;100.00
49122;BME280;35529;44.342;25.944;2023-07-16T00:09:31;100790.63;;;24.25;100.00
49122;BME280;35529;44.342;25.944;2023-07-16T00:11:57;100793.91;;;24.22;100.00
49122;BME280;35529;44.342;25.944;2023-07-16T00:14:23;100795.28;;;24.19;100.00
49122;BME280;35529;44.342;25.944;2023-07-16T00:16:49;100808.31;;;24.17;100.00
49122;BME280;35529;44.342;25.944;2023-07-16T00:19:15;100807.78;;;24.15;100.00
49122;BME280;35529;44.342;25.944;2023-07-16T00:21:41;100805.88;;;24.16;100.00
49122;BME280;35529;44.342;25.944;2023-07-16T00:24:07;100792.88;;;24.13;100.00
49122;BME280;35529;44.342;25.944;2023-07-16T00:26:34;100799.09;;;24.13;100.00
49122;BME280;35529;44.342;25.944;2023-07-16T00:29:00;100805.91;;;24.10;100.00
49122;BME280;35529;44.342;25.944;2023-07-16T00:31:26;100792.91;;;24.07;100.00
49122;BME280;35529;44.342;25.944;2023-07-16T00:33:52;100788.28;;;24.03;100.00
49122;BME280;35529;44.342;25.944;2023-07-16T00:36:18;100790.78;;;23.99;100.00
49122;BME280;35529;44.342;25.944;2023-07-16T00:38:44;100794.56;;;23.98;100.00
49122;BME280;35529;44.342;25.944;2023-07-16T00:41:12;100796.75;;;23.96;100.00
49122;BME280;35529;44.342;25.944;2023-07-16T00:43:38;100785.38;;;23.94;100.00
49122;BME280;35529;44.342;25.944;2023-07-16T00:46:05;100791.34;;;23.91;100.00
49122;BME280;35529;44.342;25.944;2023-07-16T00:48:31;100787.00;;;23.85;100.00
49122;BME280;35529;44.342;25.944;2023-07-16T00:50:57;100792.47;;;23.80;100.00
49122;BME280;35529;44.342;25.944;2023-07-16T00:53:26;100784.06;;;23.76;100.00
49122;BME280;35529;44.342;25.944;2023-07-16T00:55:52;100785.16;;;23.75;100.00
49122;BME280;35529;44.342;25.944;2023-07-16T00:58:18;100787.06;;;23.74;100.00
49122;BME280;35529;44.342;25.944;2023-07-16T01:00:44;100784.34;;;23.74;100.00
49122;BME280;35529;44.342;25.944;2023-07-16T01:03:11;100780.53;;;23.75;100.00
49122;BME280;35529;44.342;25.944;2023-07-16T01:08:08;100776.78;;;23.71;100.00
49122;BME280;35529;44.342;25.944;2023-07-16T01:10:35;100782.47;;;23.70;100.00
49122;BME280;35529;44.342;25.944;2023-07-16T01:13:02;100773.22;;;23.71;100.00
49122;BME280;35529;44.342;25.944;2023-07-16T01:15:29;100779.19;;;23.73;100.00
49122;BME280;35529;44.342;25.944;2023-07-16T01:17:55;100775.69;;;23.72;100.00
49122;BME280;35529;44.342;25.944;2023-07-16T01:20:21;100776.22;;;23.69;100.00
49122;BME280;35529;44.342;25.944;2023-07-16T01:30:44;100776.78;;;23.66;100.00
49122;BME280;35529;44.342;25.944;2023-07-16T01:33:11;100778.41;;;23.67;100.00
49122;BME280;35529;44.342;25.944;2023-07-16T01:35:38;100771.66;;;23.65;100.00
49122;BME280;35529;44.342;25.944;2023-07-16T01:38:06;100770.28;;;23.62;100.00
49122;BME280;35529;44.342;25.944;2023-07-16T01:40:32;100763.25;;;23.61;100.00
49122;BME280;35529;44.342;25.944;2023-07-16T01:42:58;100773.28;;;23.60;100.00
49122;BME280;35529;44.342;25.944;2023-07-16T01:45:24;100763.25;;;23.61;100.00
49122;BME280;35529;44.342;25.944;2023-07-16T01:50:35;100770.31;;;23.57;100.00
49122;BME280;35529;44.342;25.944;2023-07-16T01:53:02;100762.75;;;23.54;100.00
49122;BME280;35529;44.342;25.944;2023-07-16T01:55:28;100765.16;;;23.55;100.00
49122;BME280;35529;44.342;25.944;2023-07-16T01:57:54;100770.59;;;23.55;100.00
49122;BME280;35529;44.342;25.944;2023-07-16T02:00:20;100773.81;;;23.57;100.00
49122;BME280;35529;44.342;25.944;2023-07-16T02:02:46;100762.97;;;23.57;100.00
49122;BME280;35529;44.342;25.944;2023-07-16T02:05:12;100764.34;;;23.55;100.00
49122;BME280;35529;44.342;25.944;2023-07-16T02:07:38;100767.09;;;23.50;100.00
49122;BME280;35529;44.342;25.944;2023-07-16T02:10:04;100764.63;;;23.48;100.00
49122;BME280;35529;44.342;25.944;2023-07-16T02:12:31;100766.81;;;23.46;100.00
49122;BME280;35529;44.342;25.944;2023-07-16T02:14:57;100769.81;;;23.45;100.00
49122;BME280;35529;44.342;25.944;2023-07-16T02:17:23;100767.63;;;23.47;100.00
49122;BME280;35529;44.342;25.944;2023-07-16T02:19:49;100763.31;;;23.40;100.00
49122;BME280;35529;44.342;25.944;2023-07-16T02:22:15;100765.22;;;23.40;100.00
49122;BME280;35529;44.342;25.944;2023-07-16T02:24:41;100777.97;;;23.39;100.00
49122;BME280;35529;44.342;25.944;2023-07-16T02:27:07;100766.31;;;23.39;100.00
49122;BME280;35529;44.342;25.944;2023-07-16T02:29:33;100762.78;;;23.38;100.00
49122;BME280;35529;44.342;25.944;2023-07-16T02:31:59;100758.19;;;23.34;100.00
49122;BME280;35529;44.342;25.944;2023-07-16T02:34:25;100760.06;;;23.33;100.00
49122;BME280;35529;44.342;25.944;2023-07-16T02:36:51;100771.75;;;23.34;100.00
49122;BME280;35529;44.342;25.944;2023-07-16T02:39:18;100766.84;;;23.31;100.00
49122;BME280;35529;44.342;25.944;2023-07-16T02:41:44;100766.34;;;23.29;100.00
49122;BME280;35529;44.342;25.944;2023-07-16T02:44:10;100773.38;;;23.30;100.00
49122;BME280;35529;44.342;25.944;2023-07-16T02:46:36;100772.56;;;23.29;100.00
49122;BME280;35529;44.342;25.944;2023-07-16T02:49:02;100766.06;;;23.30;100.00
49122;BME280;35529;44.342;25.944;2023-07-16T02:51:29;100767.69;;;23.31;100.00
49122;BME280;35529;44.342;25.944;2023-07-16T02:53:55;100763.91;;;23.32;100.00
49122;BME280;35529;44.342;25.944;2023-07-16T02:56:21;100766.59;;;23.32;100.00
49122;BME280;35529;44.342;25.944;2023-07-16T02:58:47;100772.81;;;23.33;100.00
49122;BME280;35529;44.342;25.944;2023-07-16T03:01:13;100774.19;;;23.35;100.00
49122;BME280;35529;44.342;25.944;2023-07-16T03:03:39;100766.84;;;23.36;100.00
49122;BME280;35529;44.342;25.944;2023-07-16T03:06:06;100769.31;;;23.32;100.00
49122;BME280;35529;44.342;25.944;2023-07-16T03:08:33;100773.34;;;23.35;100.00
49122;BME280;35529;44.342;25.944;2023-07-16T03:10:59;100784.72;;;23.37;100.00
49122;BME280;35529;44.342;25.944;2023-07-16T03:13:26;100767.09;;;23.45;100.00
49122;BME280;35529;44.342;25.944;2023-07-16T03:15:52;100773.59;;;23.49;100.00
49122;BME280;35529;44.342;25.944;2023-07-16T03:18:18;100787.66;;;23.56;100.00
49122;BME280;35529;44.342;25.944;2023-07-16T03:20:45;100775.72;;;23.62;100.00
49122;BME280;35529;44.342;25.944;2023-07-16T03:23:11;100792.78;;;23.68;100.00
49122;BME280;35529;44.342;25.944;2023-07-16T03:25:37;100778.13;;;23.74;100.00
49122;BME280;35529;44.342;25.944;2023-07-16T03:28:03;100775.09;;;23.81;100.00
49122;BME280;35529;44.342;25.944;2023-07-16T03:30:32;100781.59;;;23.85;100.00
49122;BME280;35529;44.342;25.944;2023-07-16T03:32:59;100782.94;;;23.87;100.00
49122;BME280;35529;44.342;25.944;2023-07-16T03:35:25;100779.97;;;23.89;100.00
49122;BME280;35529;44.342;25.944;2023-07-16T03:37:51;100779.94;;;23.94;100.00
49122;BME280;35529;44.342;25.944;2023-07-16T03:40:18;100785.88;;;24.01;100.00
49122;BME280;35529;44.342;25.944;2023-07-16T03:42:44;100783.94;;;24.07;100.00
49122;BME280;35529;44.342;25.944;2023-07-16T03:45:11;100781.47;;;24.16;100.00
49122;BME280;35529;44.342;25.944;2023-07-16T03:47:37;100787.91;;;24.25;100.00
49122;BME280;35529;44.342;25.944;2023-07-16T03:50:03;100790.59;;;24.30;100.00
49122;BME280;35529;44.342;25.944;2023-07-16T03:52:29;100788.38;;;24.37;100.00
49122;BME280;35529;44.342;25.944;2023-07-16T03:54:55;100787.00;;;24.40;100.00
49122;BME280;35529;44.342;25.944;2023-07-16T03:57:21;100794.03;;;24.46;100.00
49122;BME280;35529;44.342;25.944;2023-07-16T03:59:47;100798.84;;;24.54;100.00
49122;BME280;35529;44.342;25.944;2023-07-16T04:02:14;100803.41;;;24.59;100.00
49122;BME280;35529;44.342;25.944;2023-07-16T04:04:40;100794.47;;;24.64;100.00
49122;BME280;35529;44.342;25.944;2023-07-16T04:07:06;100796.88;;;24.70;100.00
49122;BME280;35529;44.342;25.944;2023-07-16T04:09:32;100795.41;;;24.78;100.00
49122;BME280;35529;44.342;25.944;2023-07-16T04:11:58;100796.44;;;24.87;100.00
49122;BME280;35529;44.342;25.944;2023-07-16T04:14:24;100794.22;;;24.95;100.00
49122;BME280;35529;44.342;25.944;2023-07-16T04:16:50;100803.69;;;24.97;100.00
49122;BME280;35529;44.342;25.944;2023-07-16T04:19:16;100806.38;;;25.02;100.00
49122;BME280;35529;44.342;25.944;2023-07-16T04:21:42;100803.06;;;25.05;100.00
49122;BME280;35529;44.342;25.944;2023-07-16T04:24:08;100801.16;;;25.06;100.00
49122;BME280;35529;44.342;25.944;2023-07-16T04:26:35;100799.47;;;25.10;100.00
49122;BME280;35529;44.342;25.944;2023-07-16T04:29:01;100801.31;;;25.20;100.00
49122;BME280;35529;44.342;25.944;2023-07-16T04:31:27;100801.72;;;25.32;100.00
49122;BME280;35529;44.342;25.944;2023-07-16T04:33:53;100809.28;;;25.40;100.00
49122;BME280;35529;44.342;25.944;2023-07-16T04:36:19;100807.84;;;25.48;100.00
49122;BME280;35529;44.342;25.944;2023-07-16T04:38:45;100804.81;;;25.50;100.00
49122;BME280;35529;44.342;25.944;2023-07-16T04:41:11;100808.06;;;25.52;100.00
49122;BME280;35529;44.342;25.944;2023-07-16T04:43:39;100807.19;;;25.56;100.00
49122;BME280;35529;44.342;25.944;2023-07-16T04:46:05;100809.03;;;25.61;100.00
49122;BME280;35529;44.342;25.944;2023-07-16T04:48:31;100810.91;;;25.66;100.00
49122;BME280;35529;44.342;25.944;2023-07-16T04:50:57;100806.44;;;25.75;100.00
49122;BME280;35529;44.342;25.944;2023-07-16T04:53:23;100807.72;;;25.83;100.00
49122;BME280;35529;44.342;25.944;2023-07-16T04:55:50;100812.78;;;25.89;100.00
49122;BME280;35529;44.342;25.944;2023-07-16T04:58:16;100816.81;;;25.92;100.00
49122;BME280;35529;44.342;25.944;2023-07-16T05:00:42;100815.66;;;25.98;100.00
49122;BME280;35529;44.342;25.944;2023-07-16T05:03:08;100820.28;;;26.03;100.00
49122;BME280;35529;44.342;25.944;2023-07-16T05:05:34;100813.72;;;26.04;100.00
49122;BME280;35529;44.342;25.944;2023-07-16T05:08:01;100811.50;;;26.06;100.00
49122;BME280;35529;44.342;25.944;2023-07-16T05:10:27;100814.97;;;26.12;100.00
49122;BME280;35529;44.342;25.944;2023-07-16T05:12:53;100811.00;;;26.23;100.00
49122;BME280;35529;44.342;25.944;2023-07-16T05:15:19;100807.09;;;26.29;100.00
49122;BME280;35529;44.342;25.944;2023-07-16T05:17:45;100813.06;;;26.31;100.00
49122;BME280;35529;44.342;25.944;2023-07-16T05:20:11;100814.53;;;26.42;100.00
49122;BME280;35529;44.342;25.944;2023-07-16T05:22:37;100799.97;;;26.52;100.00
49122;BME280;35529;44.342;25.944;2023-07-16T05:25:04;100809.59;;;26.64;100.00
49122;BME280;35529;44.342;25.944;2023-07-16T05:27:30;100805.94;;;26.68;100.00
49122;BME280;35529;44.342;25.944;2023-07-16T05:29:56;100805.31;;;26.76;100.00
49122;BME280;35529;44.342;25.944;2023-07-16T05:32:22;100809.25;;;26.84;100.00
49122;BME280;35529;44.342;25.944;2023-07-16T05:34:48;100815.16;;;26.91;100.00
49122;BME280;35529;44.342;25.944;2023-07-16T05:37:14;100817.41;;;27.03;100.00
49122;BME280;35529;44.342;25.944;2023-07-16T05:39:40;100825.38;;;27.14;100.00
49122;BME280;35529;44.342;25.944;2023-07-16T05:42:07;100824.50;;;27.18;100.00
49122;BME280;35529;44.342;25.944;2023-07-16T05:44:33;100818.66;;;27.25;100.00
49122;BME280;35529;44.342;25.944;2023-07-16T05:46:59;100826.94;;;27.34;100.00
49122;BME280;35529;44.342;25.944;2023-07-16T05:49:25;100826.88;;;27.39;100.00
49122;BME280;35529;44.342;25.944;2023-07-16T05:51:52;100823.44;;;27.47;100.00
49122;BME280;35529;44.342;25.944;2023-07-16T05:54:20;100829.91;;;27.51;100.00
49122;BME280;35529;44.342;25.944;2023-07-16T05:56:46;100834.94;;;27.58;100.00
49122;BME280;35529;44.342;25.944;2023-07-16T05:59:12;100831.53;;;27.66;100.00
49122;BME280;35529;44.342;25.944;2023-07-16T06:01:38;100836.88;;;27.71;100.00
49122;BME280;35529;44.342;25.944;2023-07-16T06:04:04;100835.56;;;27.83;100.00
49122;BME280;35529;44.342;25.944;2023-07-16T06:06:30;100837.06;;;27.89;100.00
49122;BME280;35529;44.342;25.944;2023-07-16T06:08:56;100833.84;;;27.87;100.00
49122;BME280;35529;44.342;25.944;2023-07-16T06:11:22;100838.09;;;27.93;100.00
49122;BME280;35529;44.342;25.944;2023-07-16T06:13:49;100838.47;;;28.00;100.00
49122;BME280;35529;44.342;25.944;2023-07-16T06:16:15;100834.16;;;28.13;100.00
49122;BME280;35529;44.342;25.944;2023-07-16T06:18:41;100830.84;;;28.25;100.00
49122;BME280;35529;44.342;25.944;2023-07-16T06:21:07;100830.16;;;28.33;100.00
49122;BME280;35529;44.342;25.944;2023-07-16T06:23:33;100841.34;;;28.46;100.00
49122;BME280;35529;44.342;25.944;2023-07-16T06:25:59;100831.75;;;28.57;100.00
49122;BME280;35529;44.342;25.944;2023-07-16T06:28:25;100832.97;;;28.65;100.00
49122;BME280;35529;44.342;25.944;2023-07-16T06:30:51;100834.97;;;28.73;100.00
49122;BME280;35529;44.342;25.944;2023-07-16T06:33:20;100842.09;;;28.83;100.00
49122;BME280;35529;44.342;25.944;2023-07-16T06:35:47;100842.47;;;28.90;100.00
49122;BME280;35529;44.342;25.944;2023-07-16T06:38:13;100839.78;;;28.99;100.00
49122;BME280;35529;44.342;25.944;2023-07-16T06:40:45;100842.72;;;29.02;100.00
49122;BME280;35529;44.342;25.944;2023-07-16T06:43:11;100839.53;;;29.09;100.00
49122;BME280;35529;44.342;25.944;2023-07-16T06:45:37;100835.25;;;29.17;100.00
49122;BME280;35529;44.342;25.944;2023-07-16T06:48:03;100841.28;;;29.28;100.00
49122;BME280;35529;44.342;25.944;2023-07-16T06:50:30;100832.47;;;29.39;100.00
49122;BME280;35529;44.342;25.944;2023-07-16T06:52:59;100828.50;;;29.54;100.00
49122;BME280;35529;44.342;25.944;2023-07-16T06:55:28;100821.00;;;29.69;100.00
49122;BME280;35529;44.342;25.944;2023-07-16T06:57:54;100825.34;;;29.79;100.00
49122;BME280;35529;44.342;25.944;2023-07-16T07:00:20;100829.44;;;29.90;100.00
49122;BME280;35529;44.342;25.944;2023-07-16T07:02:46;100827.38;;;29.96;100.00
49122;BME280;35529;44.342;25.944;2023-07-16T07:05:12;100825.91;;;29.98;100.00
49122;BME280;35529;44.342;25.944;2023-07-16T07:07:38;100830.25;;;29.99;100.00
49122;BME280;35529;44.342;25.944;2023-07-16T07:10:04;100828.31;;;30.08;100.00
49122;BME280;35529;44.342;25.944;2023-07-16T07:12:31;100833.50;;;30.19;100.00
49122;BME280;35529;44.342;25.944;2023-07-16T07:15:04;100828.66;;;30.24;100.00
49122;BME280;35529;44.342;25.944;2023-07-16T07:17:31;100830.78;;;30.28;100.00
49122;BME280;35529;44.342;25.944;2023-07-16T07:19:57;100826.28;;;30.32;100.00
49122;BME280;35529;44.342;25.944;2023-07-16T07:22:23;100826.41;;;30.44;100.00
49122;BME280;35529;44.342;25.944;2023-07-16T07:24:49;100828.38;;;30.52;100.00
49122;BME280;35529;44.342;25.944;2023-07-16T07:27:15;100831.91;;;30.62;100.00
49122;BME280;35529;44.342;25.944;2023-07-16T07:29:41;100823.53;;;30.67;100.00
49122;BME280;35529;44.342;25.944;2023-07-16T07:32:07;100829.19;;;30.70;100.00
49122;BME280;35529;44.342;25.944;2023-07-16T07:34:34;100825.94;;;30.77;100.00
49122;BME280;35529;44.342;25.944;2023-07-16T07:37:00;100829.47;;;30.78;100.00
49122;BME280;35529;44.342;25.944;2023-07-16T07:39:26;100818.47;;;30.86;100.00
49122;BME280;35529;44.342;25.944;2023-07-16T07:41:52;100826.38;;;30.97;100.00
49122;BME280;35529;44.342;25.944;2023-07-16T07:44:18;100819.91;;;31.01;100.00
49122;BME280;35529;44.342;25.944;2023-07-16T07:46:44;100822.19;;;31.08;100.00
49122;BME280;35529;44.342;25.944;2023-07-16T07:49:10;100822.47;;;31.24;100.00
49122;BME280;35529;44.342;25.944;2023-07-16T07:51:36;100816.47;;;31.31;100.00
49122;BME280;35529;44.342;25.944;2023-07-16T07:54:02;100814.31;;;31.36;100.00
49122;BME280;35529;44.342;25.944;2023-07-16T07:56:28;100820.28;;;31.38;100.00
49122;BME280;35529;44.342;25.944;2023-07-16T07:58:56;100815.44;;;31.44;100.00
49122;BME280;35529;44.342;25.944;2023-07-16T08:01:22;100810.25;;;31.42;100.00
49122;BME280;35529;44.342;25.944;2023-07-16T08:03:48;100806.47;;;31.56;100.00
49122;BME280;35529;44.342;25.944;2023-07-16T08:06:14;100808.00;;;31.74;100.00
49122;BME280;35529;44.342;25.944;2023-07-16T08:08:40;100814.66;;;31.73;100.00
49122;BME280;35529;44.342;25.944;2023-07-16T08:11:06;100815.88;;;31.85;100.00
49122;BME280;35529;44.342;25.944;2023-07-16T08:13:32;100815.66;;;31.90;100.00
49122;BME280;35529;44.342;25.944;2023-07-16T08:15:58;100812.53;;;32.00;100.00
49122;BME280;35529;44.342;25.944;2023-07-16T08:18:25;100818.28;;;32.07;100.00
49122;BME280;35529;44.342;25.944;2023-07-16T08:20:51;100820.34;;;32.19;100.00
49122;BME280;35529;44.342;25.944;2023-07-16T08:23:17;100815.38;;;32.34;100.00
49122;BME280;35529;44.342;25.944;2023-07-16T08:25:43;100812.88;;;32.41;100.00
49122;BME280;35529;44.342;25.944;2023-07-16T08:28:10;100815.31;;;32.55;100.00
49122;BME280;35529;44.342;25.944;2023-07-16T08:30:37;100818.59;;;32.69;100.00
49122;BME280;35529;44.342;25.944;2023-07-16T08:33:03;100818.66;;;32.82;100.00
49122;BME280;35529;44.342;25.944;2023-07-16T08:35:29;100816.50;;;32.87;100.00
49122;BME280;35529;44.342;25.944;2023-07-16T08:37:55;100809.50;;;32.90;100.00
49122;BME280;35529;44.342;25.944;2023-07-16T08:40:21;100811.81;;;33.00;100.00
49122;BME280;35529;44.342;25.944;2023-07-16T08:42:47;100809.75;;;33.09;100.00
49122;BME280;35529;44.342;25.944;2023-07-16T08:45:15;100803.13;;;33.23;100.00
49122;BME280;35529;44.342;25.944;2023-07-16T08:47:42;100807.75;;;33.31;100.00
49122;BME280;35529;44.342;25.944;2023-07-16T08:50:08;100807.16;;;33.38;98.55
49122;BME280;35529;44.342;25.944;2023-07-16T08:52:35;100793.63;;;33.33;99.18
49122;BME280;35529;44.342;25.944;2023-07-16T08:55:01;100801.56;;;33.34;100.00
49122;BME280;35529;44.342;25.944;2023-07-16T08:57:27;100804.88;;;33.40;99.84
49122;BME280;35529;44.342;25.944;2023-07-16T08:59:56;100798.47;;;33.48;99.63
49122;BME280;35529;44.342;25.944;2023-07-16T09:02:22;100800.06;;;33.62;98.73
49122;BME280;35529;44.342;25.944;2023-07-16T09:04:49;100788.69;;;33.63;94.42
49122;BME280;35529;44.342;25.944;2023-07-16T09:07:15;100795.34;;;33.62;96.61
49122;BME280;35529;44.342;25.944;2023-07-16T09:09:41;100789.25;;;33.69;95.37
49122;BME280;35529;44.342;25.944;2023-07-16T09:12:14;100789.59;;;33.80;95.47
49122;BME280;35529;44.342;25.944;2023-07-16T09:14:40;100793.38;;;33.87;93.95
49122;BME280;35529;44.342;25.944;2023-07-16T09:17:07;100792.34;;;33.92;94.77
49122;BME280;35529;44.342;25.944;2023-07-16T09:19:33;100790.28;;;33.89;91.08
49122;BME280;35529;44.342;25.944;2023-07-16T09:21:59;100789.84;;;33.87;93.35
49122;BME280;35529;44.342;25.944;2023-07-16T09:24:25;100795.78;;;34.01;92.29
49122;BME280;35529;44.342;25.944;2023-07-16T09:26:52;100794.00;;;34.09;90.03
49122;BME280;35529;44.342;25.944;2023-07-16T09:29:19;100788.78;;;34.20;90.13
49122;BME280;35529;44.342;25.944;2023-07-16T09:31:58;100792.56;;;34.28;87.40
49122;BME280;35529;44.342;25.944;2023-07-16T09:34:26;100790.38;;;34.33;87.84
49122;BME280;35529;44.342;25.944;2023-07-16T09:36:53;100790.94;;;34.27;85.11
49122;BME280;35529;44.342;25.944;2023-07-16T09:39:19;100791.75;;;34.27;84.20
49122;BME280;35529;44.342;25.944;2023-07-16T09:41:46;100784.97;;;34.37;78.90
49122;BME280;35529;44.342;25.944;2023-07-16T09:44:13;100780.22;;;34.50;79.98
49122;BME280;35529;44.342;25.944;2023-07-16T09:46:39;100785.63;;;34.46;76.33
49122;BME280;35529;44.342;25.944;2023-07-16T09:49:06;100784.72;;;34.42;78.79
49122;BME280;35529;44.342;25.944;2023-07-16T09:51:32;100775.94;;;34.52;78.99
49122;BME280;35529;44.342;25.944;2023-07-16T09:54:01;100774.72;;;34.66;73.39
49122;BME280;35529;44.342;25.944;2023-07-16T09:56:29;100778.31;;;34.82;77.60
49122;BME280;35529;44.342;25.944;2023-07-16T09:58:57;100772.81;;;35.14;77.42
49122;BME280;35529;44.342;25.944;2023-07-16T10:01:31;100768.53;;;35.33;72.94
49122;BME280;35529;44.342;25.944;2023-07-16T10:03:57;100768.69;;;35.40;72.57
49122;BME280;35529;44.342;25.944;2023-07-16T10:06:23;100766.91;;;35.48;72.37
49122;BME280;35529;44.342;25.944;2023-07-16T10:08:49;100767.31;;;35.50;72.80
49122;BME280;35529;44.342;25.944;2023-07-16T10:11:16;100759.13;;;35.53;69.19
49122;BME280;35529;44.342;25.944;2023-07-16T10:13:43;100756.84;;;35.39;71.80
49122;BME280;35529;44.342;25.944;2023-07-16T10:16:20;100752.84;;;35.37;71.89
49122;BME280;35529;44.342;25.944;2023-07-16T10:18:51;100743.47;;;35.25;71.84
49122;BME280;35529;44.342;25.944;2023-07-16T10:21:22;100760.59;;;35.31;69.85
49122;BME280;35529;44.342;25.944;2023-07-16T10:23:56;100761.28;;;35.28;69.40
49122;BME280;35529;44.342;25.944;2023-07-16T10:26:25;100755.53;;;35.01;72.04
49122;BME280;35529;44.342;25.944;2023-07-16T10:28:52;100749.56;;;35.15;71.41
49122;BME280;35529;44.342;25.944;2023-07-16T10:31:24;100749.63;;;35.19;72.13
49122;BME280;35529;44.342;25.944;2023-07-16T10:34:03;100752.03;;;35.20;70.50
49122;BME280;35529;44.342;25.944;2023-07-16T10:36:37;100747.56;;;35.32;71.81
49122;BME280;35529;44.342;25.944;2023-07-16T10:39:04;100743.00;;;35.55;68.87
49122;BME280;35529;44.342;25.944;2023-07-16T10:41:30;100745.13;;;35.62;63.99
49122;BME280;35529;44.342;25.944;2023-07-16T10:43:56;100735.53;;;35.76;63.25
49122;BME280;35529;44.342;25.944;2023-07-16T10:46:23;100733.53;;;35.92;59.95
49122;BME280;35529;44.342;25.944;2023-07-16T10:48:50;100733.94;;;35.94;62.01
49122;BME280;35529;44.342;25.944;2023-07-16T10:51:16;100733.66;;;35.99;65.86
49122;BME280;35529;44.342;25.944;2023-07-16T10:53:43;100733.38;;;36.04;66.87
49122;BME280;35529;44.342;25.944;2023-07-16T10:56:09;100733.16;;;36.13;64.00
49122;BME280;35529;44.342;25.944;2023-07-16T10:58:38;100727.56;;;36.10;64.15
49122;BME280;35529;44.342;25.944;2023-07-16T11:01:08;100726.09;;;36.16;62.76
49122;BME280;35529;44.342;25.944;2023-07-16T11:03:34;100723.47;;;36.03;61.44
49122;BME280;35529;44.342;25.944;2023-07-16T11:06:08;100720.13;;;35.94;65.15
49122;BME280;35529;44.342;25.944;2023-07-16T11:08:35;100718.81;;;36.07;61.16
49122;BME280;35529;44.342;25.944;2023-07-16T11:11:01;100718.75;;;36.04;65.04
49122;BME280;35529;44.342;25.944;2023-07-16T11:13:27;100716.22;;;35.76;63.17
49122;BME280;35529;44.342;25.944;2023-07-16T11:15:54;100708.63;;;35.72;65.23
49122;BME280;35529;44.342;25.944;2023-07-16T11:18:25;100705.03;;;35.88;65.80
49122;BME280;35529;44.342;25.944;2023-07-16T11:20:52;100710.22;;;36.13;66.55
49122;BME280;35529;44.342;25.944;2023-07-16T11:23:19;100697.13;;;36.29;63.78
49122;BME280;35529;44.342;25.944;2023-07-16T11:25:45;100705.25;;;36.42;61.40
49122;BME280;35529;44.342;25.944;2023-07-16T11:28:11;100698.00;;;36.33;61.71
49122;BME280;35529;44.342;25.944;2023-07-16T11:30:38;100695.66;;;36.35;64.15
49122;BME280;35529;44.342;25.944;2023-07-16T11:33:09;100700.91;;;36.21;60.10
49122;BME280;35529;44.342;25.944;2023-07-16T11:35:35;100696.69;;;36.27;61.16
49122;BME280;35529;44.342;25.944;2023-07-16T11:38:04;100702.00;;;36.36;59.18
49122;BME280;35529;44.342;25.944;2023-07-16T11:40:30;100690.78;;;36.29;58.38
49122;BME280;35529;44.342;25.944;2023-07-16T11:42:56;100688.22;;;36.39;58.08
49122;BME280;35529;44.342;25.944;2023-07-16T11:45:24;100686.56;;;36.58;58.24
49122;BME280;35529;44.342;25.944;2023-07-16T11:47:53;100694.44;;;36.79;59.47
49122;BME280;35529;44.342;25.944;2023-07-16T11:50:20;100689.19;;;36.97;61.12
49122;BME280;35529;44.342;25.944;2023-07-16T11:52:55;100681.41;;;37.06;63.02
49122;BME280;35529;44.342;25.944;2023-07-16T11:55:21;100687.06;;;37.14;61.79
49122;BME280;35529;44.342;25.944;2023-07-16T11:57:47;100687.31;;;37.05;60.67
49122;BME280;35529;44.342;25.944;2023-07-16T12:00:14;100688.69;;;37.18;59.03
49122;BME280;35529;44.342;25.944;2023-07-16T12:02:40;100682.38;;;37.18;55.79
49122;BME280;35529;44.342;25.944;2023-07-16T12:05:06;100679.16;;;37.16;53.74
49122;BME280;35529;44.342;25.944;2023-07-16T12:07:33;100688.88;;;37.02;55.28
49122;BME280;35529;44.342;25.944;2023-07-16T12:10:00;100690.69;;;36.91;53.59
49122;BME280;35529;44.342;25.944;2023-07-16T12:12:26;100683.97;;;36.69;55.63
49122;BME280;35529;44.342;25.944;2023-07-16T12:14:52;100679.59;;;36.68;55.01
49122;BME280;35529;44.342;25.944;2023-07-16T12:17:18;100679.81;;;36.79;57.37
49122;BME280;35529;44.342;25.944;2023-07-16T12:19:44;100686.75;;;36.92;55.00
49122;BME280;35529;44.342;25.944;2023-07-16T12:22:11;100682.75;;;36.89;52.69
49122;BME280;35529;44.342;25.944;2023-07-16T12:24:37;100684.41;;;36.94;54.88
49122;BME280;35529;44.342;25.944;2023-07-16T12:27:03;100682.22;;;37.07;54.19
49122;BME280;35529;44.342;25.944;2023-07-16T12:29:30;100677.00;;;37.02;54.50
49122;BME280;35529;44.342;25.944;2023-07-16T12:31:56;100677.91;;;36.83;51.98
49122;BME280;35529;44.342;25.944;2023-07-16T12:34:22;100675.84;;;36.80;52.12
49122;BME280;35529;44.342;25.944;2023-07-16T12:36:48;100667.31;;;36.88;52.32
49122;BME280;35529;44.342;25.944;2023-07-16T12:39:14;100668.44;;;36.84;50.47
49122;BME280;35529;44.342;25.944;2023-07-16T12:41:41;100663.81;;;36.92;50.30
49122;BME280;35529;44.342;25.944;2023-07-16T12:44:07;100663.97;;;37.02;50.76